DW4839 Weather Reports


Display with metric or nautical units.
time (UTC)temp
F
wind
direction
speed
MPH
gust
MPH
rain 1hr
in
rain 24hr
in
rain mn
in
humidity
%
barometer
mb
20200331224823 46 24 0.0 0.0 0.00 0.00 0.16 81 1018.2
20200331223351 45 30 0.0 0.0 0.00 0.00 0.16 88 1018.2
20200331221734 41 5 1.0 0.0 0.00 0.00 0.15 89 1018.4
20200331214700 45 304 0.0 0.0 0.00 0.00 0.15 82 1018.2
20200331213137 46 278 1.0 0.0 0.00 0.00 0.14 81 1018.2
20200331211726 44 152 0.0 0.0 0.00 0.00 0.13 84 1018.1
20200331204625 45 216 0.0 0.0 0.00 0.00 0.10 85 1018.2
20200331203154 43 292 0.0 0.0 0.00 0.00 0.10 93 1018.2
20200331201622 40 292 1.0 0.0 0.00 0.00 0.09 89 1018.2
20200331194711 46 202 3.0 0.0 0.00 0.00 0.07 82 1018.3
20200331193209 46 250 2.0 0.0 0.00 0.00 0.07 82 1018.2
20200331191710 44 263 0.0 0.0 0.00 0.00 0.07 92 1018.3
20200331184703 41 244 0.0 0.0 0.00 0.00 0.07 90 1018.2
20200331183252 45 198 2.0 0.0 0.00 0.00 0.07 81 1018.1
20200331181608 43 175 1.0 0.0 0.00 0.00 0.07 87 1018.1
20200331174549 42 234 1.0 0.0 0.00 0.00 0.07 90 1018.0
20200331173112 41 219 1.0 0.0 0.00 0.00 0.07 91 1017.9
20200331171625 40 228 0.0 0.0 0.00 0.00 0.07 93 1017.9
20200331164540 40 240 0.0 0.0 0.00 0.00 0.07 96 1017.7
20200331163106 40 234 0.0 0.0 0.00 0.00 0.07 97 1017.5
20200331161547 39 178 0.0 0.0 0.00 0.00 0.07 97 1017.4
20200331154629 38 208 1.0 0.0 0.00 0.00 0.07 98 1017.0
20200331153104 37 227 0.0 0.0 0.00 0.00 0.07 97 1016.9
20200331151537 38 202 1.0 0.0 0.00 0.00 0.07 97 1016.6
20200331144556 38 262 0.0 0.0 0.00 0.00 0.06 97 1016.2
20200331143100 38 275 0.0 0.0 0.00 0.00 0.06 97 1016.0
20200331141527 37 211 0.0 0.0 0.00 0.00 0.06 97 1015.8
20200331134526 37 192 0.0 0.0 0.00 0.00 0.06 97 1015.4
20200331133031 37 194 0.0 0.0 0.00 0.00 0.06 97 1015.3
20200331131531 37 186 0.0 0.0 0.00 0.00 0.06 97 1015.1
20200331124525 38 199 1.0 0.0 0.00 0.00 0.06 97 1014.7
20200331123017 38 188 1.0 0.0 0.00 0.00 0.06 97 1014.8
20200331121520 38 211 1.0 0.0 0.00 0.00 0.06 97 1015.1
20200331114534 39 234 0.0 0.0 0.00 0.00 0.06 97 1014.9
20200331113016 39 188 0.0 0.0 0.00 0.00 0.06 97 1014.8
20200331111536 39 188 0.0 0.0 0.00 0.00 0.06 97 1014.8
20200331104527 39 210 0.0 0.0 0.00 0.00 0.05 97 1014.8
20200331103039 39 219 0.0 0.0 0.00 0.00 0.05 97 1014.8
20200331101510 39 12 0.0 0.0 0.00 0.00 0.05 97 1014.8
20200331094524 39 196 0.0 0.0 0.00 0.00 0.04 97 1014.8
20200331093010 39 236 0.0 0.0 0.00 0.00 0.04 97 1014.8
20200331084513 39 207 1.0 0.0 0.00 0.00 0.01 97 1014.7
20200331083012 39 205 0.0 0.0 0.00 0.00 0.00 97 1014.4
20200331081541 39 201 0.0 0.0 0.00 0.00 0.00 97 1014.5
20200331074530 39 187 2.0 0.0 0.00 0.00 0.00 97 1014.6
20200331073006 39 197 1.0 0.0 0.00 0.00 0.00 97 1014.6
20200331071523 39 184 1.0 0.0 0.00 0.00 0.00 97 1014.6
20200331064501 40 234 2.0 0.0 0.00 0.00 0.53 97 1014.8
20200331063215 40 222 3.0 0.0 0.00 0.00 0.52 97 1014.7
20200331061753 40 191 1.0 0.0 0.00 0.00 0.52 97 1014.6
20200331054640 40 188 0.0 0.0 0.00 0.00 0.51 96 1014.6
20200331053123 40 175 1.0 0.0 0.00 0.00 0.51 97 1014.6
20200331051623 40 187 2.0 0.0 0.00 0.00 0.51 97 1014.6
20200331044611 40 207 0.0 0.0 0.00 0.00 0.50 96 1014.8
20200331043205 40 202 0.0 0.0 0.00 0.00 0.49 96 1014.9
20200331041628 40 200 0.0 0.0 0.00 0.00 0.48 96 1015.0
20200331034517 40 180 0.0 0.0 0.00 0.00 0.48 96 1014.7
20200331033052 40 215 0.0 0.0 0.00 0.00 0.48 96 1014.7
20200331030029 41 229 0.0 0.0 0.00 0.00 0.44 96 1014.8
20200331024507 41 200 1.0 0.0 0.00 0.00 0.43 96 1014.7
20200331023034 41 175 1.0 0.0 0.00 0.00 0.43 96 1014.7
20200331020003 41 212 0.0 0.0 0.00 0.00 0.43 95 1014.6
20200331014508 40 194 1.0 0.0 0.00 0.00 0.43 94 1014.7
20200331013003 40 32 1.0 0.0 0.00 0.00 0.42 92 1014.8
20200331010003 43 298 1.0 0.0 0.00 0.00 0.28 92 1014.6
20200331004502 43 244 0.0 0.0 0.00 0.00 0.28 90 1014.5
20200331003208 44 265 1.0 0.0 0.00 0.00 0.28 87 1014.5
20200330234655 44 229 2.0 0.0 0.00 0.00 0.27 84 1014.4
20200330233259 45 200 2.0 0.0 0.00 0.00 0.27 81 1014.4
20200330230316 44 249 2.0 0.0 0.00 0.00 0.27 82 1014.3